createdAt,value
2019-05-02T04:00:34.978Z,105.70
2019-05-02T04:02:34.954Z,130.10
2019-05-02T04:04:34.948Z,130.40
2019-05-02T04:06:34.911Z,122.40
2019-05-02T04:08:34.899Z,119.70
2019-05-02T04:10:34.912Z,118.20
2019-05-02T04:12:34.847Z,103.60
2019-05-02T04:14:38.092Z,113.60
2019-05-02T04:16:34.815Z,119.30
2019-05-02T04:18:34.807Z,120.20
2019-05-02T04:20:34.756Z,117.90
2019-05-02T04:22:34.748Z,128.20
2019-05-02T04:24:34.766Z,120.20
2019-05-02T04:26:34.695Z,118.30
2019-05-02T04:28:34.683Z,113.10
2019-05-02T04:30:34.700Z,121.10
2019-05-02T04:32:34.630Z,117.20
2019-05-02T04:34:34.631Z,122.30
2019-05-02T04:36:34.598Z,126.70
2019-05-02T04:38:44.384Z,130.10
2019-05-02T04:40:41.801Z,123.50
2019-05-02T04:42:35.524Z,122.30
2019-05-02T04:44:40.870Z,117.00
2019-05-02T04:46:38.589Z,126.30
2019-05-02T04:48:39.928Z,122.10
2019-05-02T04:50:37.673Z,129.10
2019-05-02T04:52:38.494Z,124.00
2019-05-02T04:54:38.047Z,127.40
2019-05-02T04:56:39.735Z,134.90
2019-05-02T04:58:37.924Z,130.10
2019-05-02T05:00:35.339Z,130.80
2019-05-02T05:02:37.315Z,128.30
2019-05-02T05:04:41.990Z,141.30
2019-05-02T05:06:35.258Z,139.70
2019-05-02T05:08:34.300Z,123.20
2019-05-02T05:10:40.179Z,116.00
2019-05-02T05:12:39.991Z,115.80
2019-05-02T05:14:40.631Z,125.80
2019-05-02T05:16:37.323Z,115.70
2019-05-02T05:18:34.175Z,121.90
2019-05-02T05:20:34.135Z,127.50
2019-05-02T05:22:41.530Z,136.90
2019-05-02T05:24:38.525Z,129.60
2019-05-02T05:26:39.109Z,131.00
2019-05-02T05:28:39.506Z,134.10
2019-05-02T05:30:37.696Z,136.60
2019-05-02T05:32:35.104Z,152.40
2019-05-02T05:34:34.023Z,146.20
2019-05-02T05:36:34.200Z,149.30
2019-05-02T05:38:36.020Z,151.10
2019-05-02T05:40:33.997Z,150.30
2019-05-02T05:42:33.937Z,149.40
2019-05-02T05:44:33.922Z,137.30
2019-05-02T05:46:40.594Z,136.80
2019-05-02T05:48:37.212Z,139.00
2019-05-02T05:50:37.688Z,145.70
2019-05-02T05:52:38.653Z,148.20
2019-05-02T05:54:38.382Z,142.50
2019-05-02T05:56:39.751Z,139.40
2019-05-02T05:58:39.752Z,138.10
2019-05-02T06:00:34.712Z,136.40
2019-05-02T06:02:49.758Z,131.50
2019-05-02T06:04:34.731Z,131.90
2019-05-02T06:06:33.664Z,134.30
2019-05-02T06:08:33.621Z,125.80
2019-05-02T06:10:33.583Z,122.50
2019-05-02T06:12:35.628Z,128.90
2019-05-02T06:14:34.651Z,121.90
2019-05-02T06:16:35.330Z,124.70
2019-05-02T06:18:36.256Z,127.30
2019-05-02T06:20:34.493Z,119.20
2019-05-02T06:22:33.474Z,116.20
2019-05-02T06:24:33.972Z,115.30
2019-05-02T06:26:33.409Z,123.70
2019-05-02T06:28:36.182Z,119.60
2019-05-02T06:30:34.366Z,125.60
2019-05-02T06:32:33.411Z,120.70
2019-05-02T06:34:33.330Z,121.40
2019-05-02T06:36:36.930Z,118.20
2019-05-02T06:38:33.314Z,122.80
2019-05-02T06:40:33.329Z,115.10
2019-05-02T06:42:34.612Z,115.40
2019-05-02T06:44:33.225Z,122.90
2019-05-02T06:46:33.433Z,126.60
2019-05-02T06:48:33.184Z,116.60
2019-05-02T06:50:38.230Z,115.60
2019-05-02T06:52:34.641Z,119.50
2019-05-02T06:54:33.226Z,119.90
2019-05-02T06:56:33.117Z,113.30
2019-05-02T06:58:37.057Z,110.10
2019-05-02T07:00:38.464Z,112.50
2019-05-02T07:02:35.366Z,112.40
2019-05-02T07:04:32.987Z,109.80
2019-05-02T07:06:42.158Z,119.40
2019-05-02T07:08:34.035Z,115.00
2019-05-02T07:10:44.090Z,109.30
2019-05-02T07:12:33.908Z,111.80
2019-05-02T07:14:32.884Z,109.10
2019-05-02T07:16:38.611Z,105.00
2019-05-02T07:18:33.847Z,102.40
2019-05-02T07:20:35.125Z,101.80
2019-05-02T07:22:38.828Z,100.60
2019-05-02T07:25:45.274Z,102.90
2019-05-02T07:27:44.319Z,102.90
2019-05-02T07:29:44.312Z,100.60
2019-05-02T07:31:47.738Z,94.50
2019-05-02T07:33:44.268Z,100.80
2019-05-02T07:35:44.248Z,100.60
2019-05-02T07:37:48.791Z,91.90
2019-05-02T07:39:45.234Z,94.90
2019-05-02T07:41:44.199Z,96.30
2019-05-02T07:43:44.159Z,94.40
2019-05-02T07:45:45.450Z,89.30
2019-05-02T07:47:44.123Z,79.10
2019-05-02T07:49:44.077Z,79.60
2019-05-02T07:51:44.090Z,80.50
2019-05-02T07:53:44.438Z,73.10
2019-05-02T07:55:44.014Z,79.40
2019-05-02T07:57:44.021Z,75.50
2019-05-02T07:59:43.986Z,70.60
2019-05-02T08:01:44.959Z,74.40
2019-05-02T08:03:44.930Z,67.90
2019-05-02T08:05:43.939Z,72.00
2019-05-02T08:07:43.919Z,74.50
2019-05-02T08:09:44.192Z,70.80
2019-05-02T08:11:43.866Z,73.70
2019-05-02T08:13:43.835Z,71.60
2019-05-02T08:15:45.593Z,73.70
2019-05-02T08:17:53.211Z,78.80
2019-05-02T08:19:44.763Z,84.80
2019-05-02T08:21:43.788Z,82.80
2019-05-02T08:23:43.749Z,83.70
2019-05-02T08:25:45.400Z,84.10
2019-05-02T08:27:43.683Z,88.60
2019-05-02T08:29:43.651Z,85.50
2019-05-02T08:31:43.638Z,88.30
2019-05-02T08:33:43.620Z,92.40
2019-05-02T08:35:43.607Z,88.60
2019-05-02T08:37:43.575Z,86.20
2019-05-02T08:39:43.604Z,92.20
2019-05-02T08:41:43.521Z,87.80
2019-05-02T08:43:44.841Z,90.10
2019-05-02T08:45:43.569Z,86.20
2019-05-02T08:47:43.466Z,89.70
2019-05-02T08:49:43.462Z,90.50
2019-05-02T08:51:43.416Z,88.00
2019-05-02T08:53:43.405Z,83.20
2019-05-02T08:55:45.317Z,83.30
2019-05-02T08:57:43.346Z,83.10
2019-05-02T08:59:43.352Z,85.30
2019-05-02T09:01:44.700Z,92.60
2019-05-02T09:03:55.325Z,93.60
2019-05-02T09:05:45.998Z,95.00
2019-05-02T09:07:43.427Z,93.20
2019-05-02T09:09:43.241Z,91.10
2019-05-02T09:11:48.260Z,95.60
2019-05-02T09:13:46.038Z,92.50
2019-05-02T09:15:49.633Z,94.90
2019-05-02T09:17:51.647Z,94.80
2019-05-02T09:19:44.119Z,99.10
2019-05-02T09:21:43.103Z,93.60
2019-05-02T09:23:43.981Z,94.00
2019-05-02T09:25:43.167Z,95.80
2019-05-02T09:27:43.040Z,97.60
2019-05-02T09:29:45.894Z,94.70
2019-05-02T09:31:46.089Z,95.00
2019-05-02T09:33:46.762Z,92.00
2019-05-02T09:35:42.942Z,98.60
2019-05-02T09:37:42.934Z,93.90
2019-05-02T09:39:42.915Z,98.00
2019-05-02T09:41:42.876Z,92.20
2019-05-02T09:43:42.893Z,95.50
2019-05-02T09:45:43.929Z,91.40
2019-05-02T09:47:56.681Z,90.10
2019-05-02T09:49:49.178Z,90.70
2019-05-02T09:51:45.575Z,78.60
2019-05-02T09:53:43.310Z,80.40
2019-05-02T09:55:50.376Z,80.70
2019-05-02T09:57:43.726Z,79.50
2019-05-02T09:59:50.439Z,77.50
2019-05-02T10:01:43.665Z,84.20
2019-05-02T10:03:42.655Z,80.90
2019-05-02T10:05:43.206Z,76.80
2019-05-02T10:07:42.619Z,80.20
2019-05-02T10:09:42.598Z,79.70
2019-05-02T10:11:42.564Z,78.40
2019-05-02T10:13:42.550Z,81.40
2019-05-02T10:15:42.517Z,80.60
2019-05-02T10:17:46.374Z,82.10
2019-05-02T10:19:48.791Z,76.80
2019-05-02T10:21:50.155Z,76.70
2019-05-02T10:23:43.706Z,78.70
2019-05-02T10:25:46.646Z,80.20
2019-05-02T10:27:46.021Z,80.00
2019-05-02T10:29:42.391Z,76.60
2019-05-02T10:31:42.639Z,77.50
2019-05-02T10:33:42.323Z,75.50
2019-05-02T10:35:43.373Z,75.90
2019-05-02T10:37:43.074Z,72.80
2019-05-02T10:39:42.391Z,74.00
2019-05-02T10:41:43.782Z,76.90
2019-05-02T10:43:42.454Z,77.40
2019-05-02T10:45:42.631Z,75.10
2019-05-02T10:47:42.394Z,73.30
2019-05-02T10:49:42.674Z,73.60
2019-05-02T10:51:48.992Z,69.80
2019-05-02T10:53:47.099Z,69.60
2019-05-02T10:55:43.116Z,71.30
2019-05-02T10:57:42.206Z,72.70
2019-05-02T10:59:42.205Z,70.00
2019-05-02T11:01:42.023Z,70.50
2019-05-02T11:03:43.728Z,67.50
2019-05-02T11:05:42.999Z,70.40
2019-05-02T11:07:42.069Z,72.40
2019-05-02T11:09:42.076Z,73.70
2019-05-02T11:11:42.510Z,70.30
2019-05-02T11:13:42.593Z,66.50
2019-05-02T11:15:41.943Z,68.60
2019-05-02T11:17:42.333Z,66.70
2019-05-02T11:19:42.041Z,65.50
2019-05-02T11:21:53.545Z,64.90
2019-05-02T11:23:42.841Z,70.00
2019-05-02T11:25:42.209Z,66.80
2019-05-02T11:27:41.956Z,68.40
2019-05-02T11:29:42.514Z,67.50
2019-05-02T11:31:42.744Z,65.60
2019-05-02T11:33:41.905Z,62.10
2019-05-02T11:35:49.094Z,66.80
2019-05-02T11:37:42.638Z,67.10
2019-05-02T11:39:46.567Z,68.90
2019-05-02T11:41:42.596Z,66.60
2019-05-02T11:43:44.870Z,69.10
2019-05-02T11:45:42.461Z,66.30
2019-05-02T11:47:42.306Z,66.40
2019-05-02T11:49:42.544Z,66.80
2019-05-02T11:51:42.491Z,63.80
2019-05-02T11:53:42.014Z,66.20
2019-05-02T11:55:43.734Z,61.30
2019-05-02T11:57:42.562Z,61.70
2019-05-02T11:59:42.508Z,60.50
2019-05-02T12:01:42.645Z,58.70
2019-05-02T12:03:42.296Z,60.00
2019-05-02T12:05:41.970Z,60.90
2019-05-02T12:07:41.804Z,58.60
2019-05-02T12:09:44.308Z,62.80
2019-05-02T12:11:42.275Z,61.00
2019-05-02T12:13:42.796Z,59.00
2019-05-02T12:15:43.558Z,56.60
2019-05-02T12:17:41.960Z,58.80
2019-05-02T12:19:42.591Z,56.20
2019-05-02T12:21:41.960Z,58.10
2019-05-02T12:23:41.805Z,60.50
2019-05-02T12:25:42.289Z,57.00
2019-05-02T12:27:42.508Z,59.00
2019-05-02T12:29:42.363Z,60.30
2019-05-02T12:31:42.702Z,60.90
2019-05-02T12:33:42.680Z,62.30
2019-05-02T12:35:43.039Z,59.70
2019-05-02T12:37:42.401Z,58.00
2019-05-02T12:39:42.526Z,58.60
2019-05-02T12:41:42.180Z,62.80
2019-05-02T12:43:41.642Z,59.80
2019-05-02T12:45:42.086Z,55.00
2019-05-02T12:47:42.729Z,55.50
2019-05-02T12:49:42.444Z,56.90
2019-05-02T12:51:42.742Z,52.30
2019-05-02T12:53:41.805Z,47.40
2019-05-02T12:55:42.134Z,47.80
2019-05-02T12:57:42.729Z,51.20
2019-05-02T12:59:41.680Z,45.60
2019-05-02T13:01:42.172Z,45.10
2019-05-02T13:03:40.704Z,45.70
2019-05-02T13:05:42.500Z,48.60
2019-05-02T13:07:42.794Z,50.40
2019-05-02T13:09:42.095Z,49.50
2019-05-02T13:11:42.286Z,49.70
2019-05-02T13:13:41.916Z,45.90
2019-05-02T13:15:42.379Z,50.30
2019-05-02T13:17:43.889Z,45.10
2019-05-02T13:19:55.186Z,45.30
2019-05-02T13:21:43.067Z,47.20
2019-05-02T13:23:42.387Z,42.30
2019-05-02T13:25:42.339Z,45.70
2019-05-02T13:27:46.069Z,49.40
2019-05-02T13:29:42.850Z,49.80
2019-05-02T13:31:40.396Z,52.20
2019-05-02T13:33:40.384Z,50.20
2019-05-02T13:35:42.167Z,51.00
2019-05-02T13:37:42.313Z,48.60
2019-05-02T13:39:41.923Z,49.20
2019-05-02T13:41:40.290Z,43.50
2019-05-02T13:43:41.871Z,42.90
2019-05-02T13:45:41.914Z,45.60
2019-05-02T13:47:40.233Z,46.60
2019-05-02T13:49:51.392Z,42.00
2019-05-02T13:51:42.602Z,39.00
2019-05-02T13:53:40.175Z,37.20
2019-05-02T13:55:40.134Z,41.10
2019-05-02T13:57:43.009Z,39.80
2019-05-02T13:59:41.657Z,43.40
2019-05-02T14:01:40.066Z,39.50
2019-05-02T14:03:41.972Z,36.70
2019-05-02T14:05:45.959Z,38.20
2019-05-02T14:07:42.866Z,36.60
2019-05-02T14:09:40.024Z,38.30
2019-05-02T14:11:41.644Z,35.70
2019-05-02T14:13:39.935Z,35.40
2019-05-02T14:15:41.951Z,37.20
2019-05-02T14:17:39.917Z,39.10
2019-05-02T14:19:41.920Z,40.80
2019-05-02T14:21:39.864Z,37.20
2019-05-02T14:23:41.900Z,35.40
2019-05-02T14:25:39.805Z,33.40
2019-05-02T14:27:42.023Z,36.80
2019-05-02T14:29:39.779Z,37.50
2019-05-02T14:31:39.743Z,38.70
2019-05-02T14:33:39.737Z,39.90
2019-05-02T14:35:39.702Z,37.90
2019-05-02T14:37:39.674Z,37.70
2019-05-02T14:39:41.536Z,40.50
2019-05-02T14:41:43.934Z,42.40
2019-05-02T14:43:44.535Z,39.30
2019-05-02T14:45:43.323Z,39.80
2019-05-02T14:47:39.580Z,39.20
2019-05-02T14:49:39.549Z,41.00
2019-05-02T14:51:41.635Z,41.10
2019-05-02T14:53:39.511Z,41.20
2019-05-02T14:55:39.498Z,47.00
2019-05-02T14:57:39.462Z,49.70
2019-05-02T14:59:39.453Z,57.80
2019-05-02T15:01:39.416Z,58.90
2019-05-02T15:03:39.420Z,60.20
2019-05-02T15:05:39.433Z,63.60
2019-05-02T15:07:39.356Z,62.80
2019-05-02T15:09:39.335Z,68.00
2019-05-02T15:11:39.343Z,67.50
2019-05-02T15:13:41.059Z,69.40
2019-05-02T15:15:42.921Z,72.70
2019-05-02T15:17:39.255Z,70.90
2019-05-02T15:19:39.224Z,74.00
2019-05-02T15:21:39.225Z,71.00
2019-05-02T15:23:39.200Z,72.70
2019-05-02T15:25:39.176Z,78.60
2019-05-02T15:27:42.351Z,73.50
2019-05-02T15:29:42.040Z,80.00
2019-05-02T15:31:39.107Z,71.60
2019-05-02T15:33:39.092Z,74.40
2019-05-02T15:35:39.079Z,76.60
2019-05-02T15:37:39.036Z,77.10
2019-05-02T15:41:40.029Z,79.00
2019-05-02T15:43:39.190Z,78.10
2019-05-02T15:45:43.544Z,79.50
2019-05-02T15:47:41.565Z,77.10
2019-05-02T15:49:41.673Z,79.70
2019-05-02T15:51:43.628Z,79.60
2019-05-02T15:53:44.700Z,81.20
2019-05-02T15:55:42.139Z,79.50
2019-05-02T15:57:43.579Z,79.50
2019-05-02T15:59:44.902Z,76.60
2019-05-02T16:01:41.219Z,80.70
2019-05-02T16:03:43.061Z,80.70
2019-05-02T16:05:41.248Z,78.50
2019-05-02T16:07:43.361Z,86.70
2019-05-02T16:09:41.519Z,82.70
2019-05-02T16:11:38.682Z,87.90
2019-05-02T16:13:38.681Z,91.30
2019-05-02T16:15:38.625Z,92.10
2019-05-02T16:17:38.607Z,77.10
2019-05-02T16:19:38.603Z,52.40
2019-05-02T16:21:38.556Z,48.80
2019-05-02T16:23:38.546Z,58.00
2019-05-02T16:25:38.536Z,56.70
2019-05-02T16:27:38.492Z,63.40
2019-05-02T16:29:38.493Z,61.60
2019-05-02T16:31:38.453Z,64.50
2019-05-02T16:33:38.441Z,62.90
2019-05-02T16:35:38.427Z,71.40
2019-05-02T16:37:38.387Z,69.70
2019-05-02T16:39:42.645Z,69.20
2019-05-02T16:42:02.399Z,58.50
2019-05-02T16:44:52.287Z,52.30
2019-05-02T16:46:52.123Z,51.40
2019-05-02T16:49:13.449Z,49.80
2019-05-02T16:50:59.745Z,47.50
2019-05-02T17:00:37.173Z,53.50
2019-05-02T17:02:08.033Z,56.60
2019-05-02T17:04:19.409Z,54.30
2019-05-02T17:06:05.016Z,57.10
2019-05-02T17:08:25.952Z,57.00
2019-05-02T17:10:23.495Z,57.40
2019-05-02T17:20:19.502Z,61.60
2019-05-02T17:26:01.604Z,63.60
2019-05-02T17:27:42.401Z,68.00
2019-05-02T17:29:43.274Z,61.40
2019-05-02T17:31:43.211Z,60.00
2019-05-02T17:34:53.744Z,58.90
2019-05-02T17:36:53.724Z,61.50
2019-05-02T17:38:54.493Z,62.90
2019-05-02T17:40:54.502Z,64.40
2019-05-02T17:42:57.130Z,60.60
2019-05-02T17:44:59.262Z,62.70
2019-05-02T17:46:58.225Z,65.60
2019-05-02T17:48:54.619Z,62.70
2019-05-02T17:50:55.968Z,63.70
2019-05-02T17:52:56.088Z,63.70
2019-05-02T17:54:57.487Z,67.20
2019-05-02T17:56:57.394Z,66.70
2019-05-02T17:58:57.882Z,66.10
2019-05-02T18:00:56.160Z,68.40
2019-05-02T18:02:53.456Z,70.60
2019-05-02T18:04:55.797Z,68.00
2019-05-02T18:06:55.122Z,64.70
2019-05-02T18:08:55.285Z,67.50
2019-05-02T18:10:58.544Z,74.20
2019-05-02T18:12:58.238Z,75.40
2019-05-02T18:14:59.129Z,77.20
2019-05-02T18:16:55.621Z,77.30
2019-05-02T18:18:53.295Z,74.80
2019-05-02T18:20:53.275Z,76.60
2019-05-02T18:22:53.253Z,83.30
2019-05-02T18:24:53.253Z,84.30
2019-05-02T18:26:53.208Z,88.60
2019-05-02T18:28:57.099Z,88.10
2019-05-02T18:30:57.098Z,111.80
2019-05-02T18:32:57.697Z,91.40
2019-05-02T18:34:56.902Z,86.70
2019-05-02T18:36:57.364Z,86.50
2019-05-02T18:39:00.177Z,90.70
2019-05-02T18:40:55.411Z,85.80
2019-05-02T18:42:56.502Z,85.90
2019-05-02T18:44:54.568Z,87.90
2019-05-02T18:46:52.982Z,87.80
2019-05-02T18:48:52.961Z,86.70
2019-05-02T18:50:52.938Z,85.20
2019-05-02T18:52:52.920Z,84.20
2019-05-02T18:54:52.896Z,85.40
2019-05-02T18:56:55.303Z,85.00
2019-05-02T18:58:53.579Z,87.00
2019-05-02T19:00:52.808Z,79.50
2019-05-02T19:02:54.625Z,86.90
2019-05-02T19:04:52.783Z,80.50
2019-05-02T19:06:52.768Z,82.80
2019-05-02T19:08:52.727Z,82.60
2019-05-02T19:11:04.603Z,92.20
2019-05-02T19:12:56.193Z,82.80
2019-05-02T19:14:57.542Z,85.90
2019-05-02T19:16:58.010Z,84.40
2019-05-02T19:18:57.290Z,84.80
2019-05-02T19:20:57.532Z,88.40
2019-05-02T19:22:56.777Z,84.70
2019-05-02T19:24:52.557Z,86.30
2019-05-02T19:26:53.388Z,84.90
2019-05-02T19:28:52.509Z,93.90
2019-05-02T19:30:52.484Z,86.50
2019-05-02T19:32:52.477Z,88.70
2019-05-02T19:34:53.154Z,91.50
2019-05-02T19:36:53.000Z,92.40
2019-05-02T19:38:52.565Z,89.70
2019-05-02T19:40:52.372Z,98.70
2019-05-02T19:42:52.731Z,97.50
2019-05-02T19:44:52.766Z,98.20
2019-05-02T19:46:52.309Z,96.30
2019-05-02T19:48:52.318Z,88.50
2019-05-02T19:50:52.280Z,90.50
2019-05-02T19:53:01.047Z,83.50
2019-05-02T19:54:53.213Z,86.90
2019-05-02T19:56:52.551Z,77.90
2019-05-02T19:58:52.293Z,73.50
2019-05-02T20:00:52.592Z,77.60
2019-05-02T20:02:52.318Z,80.60
2019-05-02T20:04:52.122Z,78.00
2019-05-02T20:06:52.082Z,79.80
2019-05-02T20:08:54.460Z,86.10
2019-05-02T20:10:56.866Z,83.40
2019-05-02T20:12:53.033Z,77.80
2019-05-02T20:14:51.996Z,81.10
2019-05-02T20:16:52.840Z,84.90
2019-05-02T20:18:52.546Z,88.10
2019-05-02T20:20:52.080Z,86.80
2019-05-02T20:22:52.411Z,89.60
2019-05-02T20:24:55.328Z,92.20
2019-05-02T20:26:56.134Z,84.20
2019-05-02T20:28:52.773Z,89.70
2019-05-02T20:30:52.659Z,87.40
2019-05-02T20:32:51.841Z,82.10
2019-05-02T20:34:51.792Z,89.30
2019-05-02T20:36:51.938Z,92.60
2019-05-02T20:38:52.544Z,92.30
2019-05-02T20:40:52.268Z,85.30
2019-05-02T20:42:52.748Z,90.10
2019-05-02T20:44:52.797Z,84.10
2019-05-02T20:46:51.739Z,88.80
2019-05-02T20:50:59.829Z,66.50
2019-05-02T20:52:52.404Z,71.10
2019-05-02T20:54:52.344Z,55.60
2019-05-02T20:56:52.065Z,59.70
2019-05-02T20:58:52.649Z,57.90
2019-05-02T21:01:04.776Z,54.00
2019-05-02T21:02:53.033Z,52.80
2019-05-02T21:04:52.301Z,51.40
2019-05-02T21:13:07.227Z,43.70
2019-05-02T21:15:28.599Z,43.20
2019-05-02T21:17:45.683Z,42.50
2019-05-02T21:19:06.129Z,37.80
2019-05-02T21:21:12.587Z,35.60
2019-05-02T21:23:26.160Z,35.10
2019-05-02T21:25:05.345Z,34.60
2019-05-02T21:27:27.110Z,31.30
2019-05-02T21:29:03.991Z,33.20
2019-05-02T21:31:03.926Z,35.40
2019-05-02T21:33:03.917Z,32.60
2019-05-02T21:35:03.898Z,30.00
2019-05-02T21:37:04.085Z,35.90
2019-05-02T21:39:03.857Z,33.60
2019-05-02T21:41:03.831Z,34.90
2019-05-02T21:43:03.999Z,37.30
2019-05-02T21:45:03.804Z,39.10
2019-05-02T21:47:05.895Z,36.80
2019-05-02T21:49:04.127Z,38.40
2019-05-02T21:51:03.736Z,33.90
2019-05-02T21:53:03.698Z,37.80
2019-05-02T21:55:03.684Z,37.90
2019-05-02T21:57:03.645Z,35.30
2019-05-02T21:59:03.650Z,33.60
2019-05-02T22:01:03.605Z,33.10
2019-05-02T22:03:03.586Z,31.40
2019-05-02T22:05:03.567Z,31.50
2019-05-02T22:07:03.533Z,32.10
2019-05-02T22:09:03.512Z,32.10
2019-05-02T22:11:03.505Z,30.00
2019-05-02T22:13:03.478Z,30.20
2019-05-02T22:15:03.463Z,29.70
2019-05-02T22:17:03.433Z,30.50
2019-05-02T22:19:03.412Z,27.80
2019-05-02T22:21:03.398Z,30.50
2019-05-02T22:23:03.368Z,32.10
2019-05-02T22:25:03.345Z,29.50
2019-05-02T22:27:03.331Z,32.20
2019-05-02T22:29:03.297Z,29.90
2019-05-02T22:31:03.403Z,33.50
2019-05-02T22:33:03.255Z,31.10
2019-05-02T22:35:03.240Z,30.60
2019-05-02T22:37:03.251Z,28.00
2019-05-02T22:39:03.207Z,28.40
2019-05-02T22:41:03.616Z,28.60
2019-05-02T22:43:04.616Z,28.50
2019-05-02T22:45:04.532Z,31.50
2019-05-02T22:47:03.127Z,27.30
2019-05-02T22:49:03.083Z,28.20
2019-05-02T22:51:03.068Z,25.70
2019-05-02T22:53:03.058Z,28.00
2019-05-02T22:55:03.097Z,27.80
2019-05-02T22:57:03.002Z,28.80
2019-05-02T22:59:02.988Z,30.70
2019-05-02T23:01:02.965Z,32.60
2019-05-02T23:03:02.948Z,31.10
2019-05-02T23:05:02.925Z,28.40
2019-05-02T23:07:02.889Z,35.80
2019-05-02T23:09:02.888Z,28.70
2019-05-02T23:11:03.524Z,30.80
2019-05-02T23:13:02.824Z,26.10
2019-05-02T23:15:02.818Z,30.80
2019-05-02T23:17:02.795Z,30.80
2019-05-02T23:19:02.889Z,31.80
2019-05-02T23:21:02.780Z,29.50
2019-05-02T23:23:02.726Z,31.90
2019-05-02T23:25:02.949Z,25.40
2019-05-02T23:27:02.687Z,29.10
2019-05-02T23:29:02.666Z,34.70
